sensor_id;sensor_type;location;lat;lon;timestamp;temperature;humidity
16867;DHT22;8550;52.596;13.320;2023-07-31T00:02:37;15.40;99.90
16867;DHT22;8550;52.596;13.320;2023-07-31T00:07:41;15.30;99.90
16867;DHT22;8550;52.596;13.320;2023-07-31T00:12:44;15.30;99.90
16867;DHT22;8550;52.596;13.320;2023-07-31T00:17:46;15.10;99.90
16867;DHT22;8550;52.596;13.320;2023-07-31T00:22:50;15.10;99.90
16867;DHT22;8550;52.596;13.320;2023-07-31T00:27:52;15.00;99.90
16867;DHT22;8550;52.596;13.320;2023-07-31T00:32:54;15.00;99.90
16867;DHT22;8550;52.596;13.320;2023-07-31T00:37:58;15.10;99.90
16867;DHT22;8550;52.596;13.320;2023-07-31T00:43:00;15.00;99.90
16867;DHT22;8550;52.596;13.320;2023-07-31T00:48:03;15.10;99.90
16867;DHT22;8550;52.596;13.320;2023-07-31T00:53:08;15.10;99.90
16867;DHT22;8550;52.596;13.320;2023-07-31T00:58:10;15.20;99.90
16867;DHT22;8550;52.596;13.320;2023-07-31T01:03:12;15.30;99.90
16867;DHT22;8550;52.596;13.320;2023-07-31T01:08:22;15.30;99.90
16867;DHT22;8550;52.596;13.320;2023-07-31T01:13:26;15.40;99.90
16867;DHT22;8550;52.596;13.320;2023-07-31T01:18:28;15.50;99.90
16867;DHT22;8550;52.596;13.320;2023-07-31T01:24:06;15.50;99.90
16867;DHT22;8550;52.596;13.320;2023-07-31T01:29:20;15.60;99.90
16867;DHT22;8550;52.596;13.320;2023-07-31T01:34:23;15.70;99.90
16867;DHT22;8550;52.596;13.320;2023-07-31T01:39:25;15.80;99.90
16867;DHT22;8550;52.596;13.320;2023-07-31T01:44:29;15.80;99.90
16867;DHT22;8550;52.596;13.320;2023-07-31T01:49:31;15.80;99.90
16867;DHT22;8550;52.596;13.320;2023-07-31T01:54:33;15.80;99.90
16867;DHT22;8550;52.596;13.320;2023-07-31T01:59:36;15.70;99.90
16867;DHT22;8550;52.596;13.320;2023-07-31T02:04:38;15.70;99.90
16867;DHT22;8550;52.596;13.320;2023-07-31T02:09:40;15.70;99.90
16867;DHT22;8550;52.596;13.320;2023-07-31T02:14:46;15.70;99.90
16867;DHT22;8550;52.596;13.320;2023-07-31T02:19:49;15.80;99.90
16867;DHT22;8550;52.596;13.320;2023-07-31T02:24:51;15.70;99.90
16867;DHT22;8550;52.596;13.320;2023-07-31T02:29:54;15.70;99.90
16867;DHT22;8550;52.596;13.320;2023-07-31T02:34:56;15.70;99.90
16867;DHT22;8550;52.596;13.320;2023-07-31T02:39:58;15.60;99.90
16867;DHT22;8550;52.596;13.320;2023-07-31T02:45:01;15.70;99.90
16867;DHT22;8550;52.596;13.320;2023-07-31T02:50:04;15.70;99.90
16867;DHT22;8550;52.596;13.320;2023-07-31T02:55:06;15.60;99.90
16867;DHT22;8550;52.596;13.320;2023-07-31T03:00:11;15.70;99.90
16867;DHT22;8550;52.596;13.320;2023-07-31T03:05:12;15.60;99.90
16867;DHT22;8550;52.596;13.320;2023-07-31T03:10:14;15.60;99.90
16867;DHT22;8550;52.596;13.320;2023-07-31T03:15:18;15.60;99.90
16867;DHT22;8550;52.596;13.320;2023-07-31T03:20:20;15.70;99.90
16867;DHT22;8550;52.596;13.320;2023-07-31T03:25:22;15.70;99.90
16867;DHT22;8550;52.596;13.320;2023-07-31T03:30:25;15.70;99.90
16867;DHT22;8550;52.596;13.320;2023-07-31T03:35:33;15.80;99.90
16867;DHT22;8550;52.596;13.320;2023-07-31T03:40:35;15.80;99.90
16867;DHT22;8550;52.596;13.320;2023-07-31T03:45:38;15.70;99.90
16867;DHT22;8550;52.596;13.320;2023-07-31T03:50:41;15.80;99.90
16867;DHT22;8550;52.596;13.320;2023-07-31T03:55:43;15.80;99.90
16867;DHT22;8550;52.596;13.320;2023-07-31T04:00:47;15.80;99.90
16867;DHT22;8550;52.596;13.320;2023-07-31T04:05:50;15.90;99.90
16867;DHT22;8550;52.596;13.320;2023-07-31T04:10:52;15.80;99.90
16867;DHT22;8550;52.596;13.320;2023-07-31T04:15:55;15.90;99.90
16867;DHT22;8550;52.596;13.320;2023-07-31T04:20:57;16.00;99.90
16867;DHT22;8550;52.596;13.320;2023-07-31T04:25:59;16.00;99.90
16867;DHT22;8550;52.596;13.320;2023-07-31T04:31:03;16.10;99.90
16867;DHT22;8550;52.596;13.320;2023-07-31T04:36:05;16.10;99.90
16867;DHT22;8550;52.596;13.320;2023-07-31T04:41:07;16.20;99.90
16867;DHT22;8550;52.596;13.320;2023-07-31T04:46:10;16.20;99.90
16867;DHT22;8550;52.596;13.320;2023-07-31T04:51:12;16.20;99.90
16867;DHT22;8550;52.596;13.320;2023-07-31T04:56:14;16.30;99.90
16867;DHT22;8550;52.596;13.320;2023-07-31T05:01:18;16.20;99.90
16867;DHT22;8550;52.596;13.320;2023-07-31T05:06:19;16.30;99.90
16867;DHT22;8550;52.596;13.320;2023-07-31T05:11:22;16.30;99.90
16867;DHT22;8550;52.596;13.320;2023-07-31T05:16:25;16.30;99.90
16867;DHT22;8550;52.596;13.320;2023-07-31T05:21:27;16.40;99.90
16867;DHT22;8550;52.596;13.320;2023-07-31T05:26:29;16.50;99.90
16867;DHT22;8550;52.596;13.320;2023-07-31T05:31:32;16.60;99.90
16867;DHT22;8550;52.596;13.320;2023-07-31T05:36:35;16.80;99.90
16867;DHT22;8550;52.596;13.320;2023-07-31T05:41:37;16.80;99.90
16867;DHT22;8550;52.596;13.320;2023-07-31T05:46:40;16.80;99.90
16867;DHT22;8550;52.596;13.320;2023-07-31T05:51:42;16.80;99.90
16867;DHT22;8550;52.596;13.320;2023-07-31T05:56:43;16.90;99.90
16867;DHT22;8550;52.596;13.320;2023-07-31T06:01:47;16.90;99.90
16867;DHT22;8550;52.596;13.320;2023-07-31T06:06:49;17.10;99.90
16867;DHT22;8550;52.596;13.320;2023-07-31T06:11:51;17.10;99.90
16867;DHT22;8550;52.596;13.320;2023-07-31T06:16:54;17.20;99.90
16867;DHT22;8550;52.596;13.320;2023-07-31T06:21:56;17.20;99.90
16867;DHT22;8550;52.596;13.320;2023-07-31T06:26:58;17.30;99.90
16867;DHT22;8550;52.596;13.320;2023-07-31T06:32:01;17.40;99.90
16867;DHT22;8550;52.596;13.320;2023-07-31T06:37:04;17.50;99.90
16867;DHT22;8550;52.596;13.320;2023-07-31T06:42:06;17.50;99.90
16867;DHT22;8550;52.596;13.320;2023-07-31T06:47:10;17.70;99.90
16867;DHT22;8550;52.596;13.320;2023-07-31T06:52:12;17.70;99.90
16867;DHT22;8550;52.596;13.320;2023-07-31T06:57:14;17.80;99.90
16867;DHT22;8550;52.596;13.320;2023-07-31T07:02:17;17.80;99.90
16867;DHT22;8550;52.596;13.320;2023-07-31T07:07:19;17.60;99.90
16867;DHT22;8550;52.596;13.320;2023-07-31T07:12:21;17.60;99.90
16867;DHT22;8550;52.596;13.320;2023-07-31T07:17:24;17.60;99.90
16867;DHT22;8550;52.596;13.320;2023-07-31T07:22:26;17.40;99.90
16867;DHT22;8550;52.596;13.320;2023-07-31T07:27:28;17.20;99.90
16867;DHT22;8550;52.596;13.320;2023-07-31T07:32:32;17.50;99.90
16867;DHT22;8550;52.596;13.320;2023-07-31T07:37:34;17.80;99.90
16867;DHT22;8550;52.596;13.320;2023-07-31T07:42:35;18.00;99.90
16867;DHT22;8550;52.596;13.320;2023-07-31T07:47:40;18.00;99.90
16867;DHT22;8550;52.596;13.320;2023-07-31T07:52:42;18.00;99.90
16867;DHT22;8550;52.596;13.320;2023-07-31T07:57:44;18.30;99.90
16867;DHT22;8550;52.596;13.320;2023-07-31T08:02:47;18.00;99.90
16867;DHT22;8550;52.596;13.320;2023-07-31T08:07:49;17.80;99.90
16867;DHT22;8550;52.596;13.320;2023-07-31T08:12:51;17.90;99.90
16867;DHT22;8550;52.596;13.320;2023-07-31T08:17:54;18.10;99.90
16867;DHT22;8550;52.596;13.320;2023-07-31T08:22:56;17.90;99.90
16867;DHT22;8550;52.596;13.320;2023-07-31T08:27:58;17.80;99.90
16867;DHT22;8550;52.596;13.320;2023-07-31T08:33:02;17.60;99.90
16867;DHT22;8550;52.596;13.320;2023-07-31T08:38:04;17.60;99.90
16867;DHT22;8550;52.596;13.320;2023-07-31T08:43:07;17.60;99.90
16867;DHT22;8550;52.596;13.320;2023-07-31T08:48:11;17.80;99.90
16867;DHT22;8550;52.596;13.320;2023-07-31T08:53:13;17.90;99.90
16867;DHT22;8550;52.596;13.320;2023-07-31T08:58:17;18.10;99.90
16867;DHT22;8550;52.596;13.320;2023-07-31T09:03:23;18.60;99.90
16867;DHT22;8550;52.596;13.320;2023-07-31T09:08:30;18.90;99.90
16867;DHT22;8550;52.596;13.320;2023-07-31T09:13:32;18.80;99.90
16867;DHT22;8550;52.596;13.320;2023-07-31T09:18:52;18.60;99.90
16867;DHT22;8550;52.596;13.320;2023-07-31T09:23:55;18.30;99.90
16867;DHT22;8550;52.596;13.320;2023-07-31T09:28:57;18.10;99.90
16867;DHT22;8550;52.596;13.320;2023-07-31T09:34:00;18.00;99.90
16867;DHT22;8550;52.596;13.320;2023-07-31T09:39:02;17.70;99.90
16867;DHT22;8550;52.596;13.320;2023-07-31T09:44:05;17.50;99.90
16867;DHT22;8550;52.596;13.320;2023-07-31T09:49:09;17.40;99.90
16867;DHT22;8550;52.596;13.320;2023-07-31T09:54:12;17.50;99.90
16867;DHT22;8550;52.596;13.320;2023-07-31T09:59:16;17.70;99.90
16867;DHT22;8550;52.596;13.320;2023-07-31T10:04:25;17.80;99.90
16867;DHT22;8550;52.596;13.320;2023-07-31T10:09:29;18.20;99.90
16867;DHT22;8550;52.596;13.320;2023-07-31T10:14:33;18.90;99.90
16867;DHT22;8550;52.596;13.320;2023-07-31T10:19:36;18.70;99.90
16867;DHT22;8550;52.596;13.320;2023-07-31T10:24:39;18.40;99.90
16867;DHT22;8550;52.596;13.320;2023-07-31T10:29:43;18.40;99.90
16867;DHT22;8550;52.596;13.320;2023-07-31T10:34:48;18.20;99.90
16867;DHT22;8550;52.596;13.320;2023-07-31T10:39:58;18.10;99.90
16867;DHT22;8550;52.596;13.320;2023-07-31T10:45:03;18.10;99.90
16867;DHT22;8550;52.596;13.320;2023-07-31T10:50:13;18.50;99.90
16867;DHT22;8550;52.596;13.320;2023-07-31T10:55:22;18.90;99.90
16867;DHT22;8550;52.596;13.320;2023-07-31T11:00:26;20.10;99.90
16867;DHT22;8550;52.596;13.320;2023-07-31T11:05:48;21.30;99.90
16867;DHT22;8550;52.596;13.320;2023-07-31T11:10:51;21.90;99.90
16867;DHT22;8550;52.596;13.320;2023-07-31T11:16:06;21.70;99.90
16867;DHT22;8550;52.596;13.320;2023-07-31T11:21:12;20.90;99.90
16867;DHT22;8550;52.596;13.320;2023-07-31T11:26:14;20.90;99.90
16867;DHT22;8550;52.596;13.320;2023-07-31T11:31:17;21.30;99.90
16867;DHT22;8550;52.596;13.320;2023-07-31T11:36:21;21.50;99.90
16867;DHT22;8550;52.596;13.320;2023-07-31T11:41:22;21.40;99.90
16867;DHT22;8550;52.596;13.320;2023-07-31T11:46:24;21.00;99.90
16867;DHT22;8550;52.596;13.320;2023-07-31T11:51:29;20.80;99.90
16867;DHT22;8550;52.596;13.320;2023-07-31T11:56:31;20.40;99.90
16867;DHT22;8550;52.596;13.320;2023-07-31T12:01:33;20.40;99.90
16867;DHT22;8550;52.596;13.320;2023-07-31T12:06:37;20.40;99.90
16867;DHT22;8550;52.596;13.320;2023-07-31T12:11:44;20.40;99.90
16867;DHT22;8550;52.596;13.320;2023-07-31T12:16:47;20.20;99.90
16867;DHT22;8550;52.596;13.320;2023-07-31T12:21:50;19.70;99.90
16867;DHT22;8550;52.596;13.320;2023-07-31T12:26:52;19.10;99.90
16867;DHT22;8550;52.596;13.320;2023-07-31T12:31:55;19.00;99.90
16867;DHT22;8550;52.596;13.320;2023-07-31T12:36:58;19.00;99.90
16867;DHT22;8550;52.596;13.320;2023-07-31T12:42:00;19.00;99.90
16867;DHT22;8550;52.596;13.320;2023-07-31T12:47:02;19.30;99.90
16867;DHT22;8550;52.596;13.320;2023-07-31T12:52:13;19.40;99.90
16867;DHT22;8550;52.596;13.320;2023-07-31T12:57:15;19.40;99.90
16867;DHT22;8550;52.596;13.320;2023-07-31T13:02:17;18.90;99.90
16867;DHT22;8550;52.596;13.320;2023-07-31T13:07:20;19.00;99.90
16867;DHT22;8550;52.596;13.320;2023-07-31T13:12:22;19.10;99.90
16867;DHT22;8550;52.596;13.320;2023-07-31T13:17:24;18.90;99.90
16867;DHT22;8550;52.596;13.320;2023-07-31T13:22:28;18.70;99.90
16867;DHT22;8550;52.596;13.320;2023-07-31T13:27:30;19.30;99.90
16867;DHT22;8550;52.596;13.320;2023-07-31T13:32:31;19.70;99.90
16867;DHT22;8550;52.596;13.320;2023-07-31T13:37:35;19.90;99.90
16867;DHT22;8550;52.596;13.320;2023-07-31T13:42:37;20.10;99.90
16867;DHT22;8550;52.596;13.320;2023-07-31T13:47:38;20.90;99.90
16867;DHT22;8550;52.596;13.320;2023-07-31T13:52:42;22.30;99.90
16867;DHT22;8550;52.596;13.320;2023-07-31T13:57:44;22.90;99.90
16867;DHT22;8550;52.596;13.320;2023-07-31T14:02:45;22.10;99.90
16867;DHT22;8550;52.596;13.320;2023-07-31T14:07:49;21.10;99.90
16867;DHT22;8550;52.596;13.320;2023-07-31T14:12:51;20.70;99.90
16867;DHT22;8550;52.596;13.320;2023-07-31T14:17:52;20.50;99.90
16867;DHT22;8550;52.596;13.320;2023-07-31T14:22:56;20.30;99.90
16867;DHT22;8550;52.596;13.320;2023-07-31T14:27:58;20.50;99.90
16867;DHT22;8550;52.596;13.320;2023-07-31T14:33:00;20.60;99.90
16867;DHT22;8550;52.596;13.320;2023-07-31T14:38:04;20.70;99.90
16867;DHT22;8550;52.596;13.320;2023-07-31T14:43:06;20.70;99.90
16867;DHT22;8550;52.596;13.320;2023-07-31T14:48:08;20.60;99.90
16867;DHT22;8550;52.596;13.320;2023-07-31T14:53:13;20.60;99.90
16867;DHT22;8550;52.596;13.320;2023-07-31T14:58:15;20.60;99.90
16867;DHT22;8550;52.596;13.320;2023-07-31T15:03:17;20.50;99.90
16867;DHT22;8550;52.596;13.320;2023-07-31T15:08:21;20.60;99.90
16867;DHT22;8550;52.596;13.320;2023-07-31T15:13:23;20.70;99.90
16867;DHT22;8550;52.596;13.320;2023-07-31T15:18:25;20.80;99.90
16867;DHT22;8550;52.596;13.320;2023-07-31T15:23:28;20.80;99.90
16867;DHT22;8550;52.596;13.320;2023-07-31T15:28:31;21.10;99.90
16867;DHT22;8550;52.596;13.320;2023-07-31T15:33:35;21.40;99.90
16867;DHT22;8550;52.596;13.320;2023-07-31T15:38:38;21.20;99.90
16867;DHT22;8550;52.596;13.320;2023-07-31T15:43:40;20.90;99.90
16867;DHT22;8550;52.596;13.320;2023-07-31T15:48:42;20.80;99.90
16867;DHT22;8550;52.596;13.320;2023-07-31T15:53:45;20.80;99.90
16867;DHT22;8550;52.596;13.320;2023-07-31T15:58:57;20.70;99.90
16867;DHT22;8550;52.596;13.320;2023-07-31T16:04:01;20.70;99.90
16867;DHT22;8550;52.596;13.320;2023-07-31T16:09:04;20.60;99.90
16867;DHT22;8550;52.596;13.320;2023-07-31T16:14:06;20.60;99.90
16867;DHT22;8550;52.596;13.320;2023-07-31T16:19:08;20.50;99.90
16867;DHT22;8550;52.596;13.320;2023-07-31T16:24:11;20.60;99.90
16867;DHT22;8550;52.596;13.320;2023-07-31T16:29:13;20.70;99.90
16867;DHT22;8550;52.596;13.320;2023-07-31T16:34:15;20.80;99.90
16867;DHT22;8550;52.596;13.320;2023-07-31T16:39:18;20.60;99.90
16867;DHT22;8550;52.596;13.320;2023-07-31T16:44:20;20.60;99.90
16867;DHT22;8550;52.596;13.320;2023-07-31T16:49:22;20.80;99.90
16867;DHT22;8550;52.596;13.320;2023-07-31T16:54:25;21.10;99.90
16867;DHT22;8550;52.596;13.320;2023-07-31T16:59:28;21.30;99.90
16867;DHT22;8550;52.596;13.320;2023-07-31T17:04:29;21.30;99.90
16867;DHT22;8550;52.596;13.320;2023-07-31T17:09:33;21.20;99.90
16867;DHT22;8550;52.596;13.320;2023-07-31T17:14:35;21.10;99.90
16867;DHT22;8550;52.596;13.320;2023-07-31T17:19:37;20.80;99.90
16867;DHT22;8550;52.596;13.320;2023-07-31T17:24:40;20.20;99.90
16867;DHT22;8550;52.596;13.320;2023-07-31T17:29:42;19.60;99.90
16867;DHT22;8550;52.596;13.320;2023-07-31T17:34:44;19.20;99.90
16867;DHT22;8550;52.596;13.320;2023-07-31T17:39:48;18.70;99.90
16867;DHT22;8550;52.596;13.320;2023-07-31T17:44:50;18.60;99.90
16867;DHT22;8550;52.596;13.320;2023-07-31T17:49:52;18.60;99.90
16867;DHT22;8550;52.596;13.320;2023-07-31T17:54:55;18.50;99.90
16867;DHT22;8550;52.596;13.320;2023-07-31T17:59:57;18.60;99.90
16867;DHT22;8550;52.596;13.320;2023-07-31T18:04:59;18.60;99.90
16867;DHT22;8550;52.596;13.320;2023-07-31T18:10:03;18.70;99.90
16867;DHT22;8550;52.596;13.320;2023-07-31T18:15:06;18.70;99.90
16867;DHT22;8550;52.596;13.320;2023-07-31T18:20:09;18.70;99.90
16867;DHT22;8550;52.596;13.320;2023-07-31T18:25:14;18.60;99.90
16867;DHT22;8550;52.596;13.320;2023-07-31T18:30:16;18.70;99.90
16867;DHT22;8550;52.596;13.320;2023-07-31T18:35:18;18.70;99.90
16867;DHT22;8550;52.596;13.320;2023-07-31T18:40:22;18.70;99.90
16867;DHT22;8550;52.596;13.320;2023-07-31T18:45:23;18.80;99.90
16867;DHT22;8550;52.596;13.320;2023-07-31T18:50:25;18.70;99.90
16867;DHT22;8550;52.596;13.320;2023-07-31T18:55:29;18.80;99.90
16867;DHT22;8550;52.596;13.320;2023-07-31T19:00:31;18.80;99.90
16867;DHT22;8550;52.596;13.320;2023-07-31T19:05:33;18.80;99.90
16867;DHT22;8550;52.596;13.320;2023-07-31T19:10:37;18.80;99.90
16867;DHT22;8550;52.596;13.320;2023-07-31T19:15:39;18.80;99.90
16867;DHT22;8550;52.596;13.320;2023-07-31T19:20:40;18.80;99.90
16867;DHT22;8550;52.596;13.320;2023-07-31T19:25:44;18.80;99.90
16867;DHT22;8550;52.596;13.320;2023-07-31T19:30:46;18.90;99.90
16867;DHT22;8550;52.596;13.320;2023-07-31T19:35:53;18.90;99.90
16867;DHT22;8550;52.596;13.320;2023-07-31T19:40:58;19.00;99.90
16867;DHT22;8550;52.596;13.320;2023-07-31T19:46:01;19.00;99.90
16867;DHT22;8550;52.596;13.320;2023-07-31T19:51:03;19.00;99.90
16867;DHT22;8550;52.596;13.320;2023-07-31T19:56:07;19.10;99.90
16867;DHT22;8550;52.596;13.320;2023-07-31T20:01:09;19.20;99.90
16867;DHT22;8550;52.596;13.320;2023-07-31T20:06:11;19.20;99.90
16867;DHT22;8550;52.596;13.320;2023-07-31T20:11:15;19.30;99.90
16867;DHT22;8550;52.596;13.320;2023-07-31T20:16:17;19.30;99.90
16867;DHT22;8550;52.596;13.320;2023-07-31T20:21:19;19.30;99.90
16867;DHT22;8550;52.596;13.320;2023-07-31T20:26:23;19.30;99.90
16867;DHT22;8550;52.596;13.320;2023-07-31T20:31:25;19.30;99.90
16867;DHT22;8550;52.596;13.320;2023-07-31T20:36:27;19.30;99.90
16867;DHT22;8550;52.596;13.320;2023-07-31T20:41:30;19.10;99.90
16867;DHT22;8550;52.596;13.320;2023-07-31T20:46:32;19.10;99.90
16867;DHT22;8550;52.596;13.320;2023-07-31T20:51:34;19.10;99.90
16867;DHT22;8550;52.596;13.320;2023-07-31T20:56:40;19.00;99.90
16867;DHT22;8550;52.596;13.320;2023-07-31T21:01:42;18.90;99.90
16867;DHT22;8550;52.596;13.320;2023-07-31T21:06:44;18.90;99.90
16867;DHT22;8550;52.596;13.320;2023-07-31T21:11:47;18.90;99.90
16867;DHT22;8550;52.596;13.320;2023-07-31T21:16:49;18.90;99.90
16867;DHT22;8550;52.596;13.320;2023-07-31T21:21:51;18.80;99.90
16867;DHT22;8550;52.596;13.320;2023-07-31T21:26:54;18.80;99.90
16867;DHT22;8550;52.596;13.320;2023-07-31T21:31:56;18.90;99.90
16867;DHT22;8550;52.596;13.320;2023-07-31T21:36:58;18.90;99.90
16867;DHT22;8550;52.596;13.320;2023-07-31T21:42:01;18.90;99.90
16867;DHT22;8550;52.596;13.320;2023-07-31T21:47:03;18.90;99.90
16867;DHT22;8550;52.596;13.320;2023-07-31T21:52:06;18.90;99.90
16867;DHT22;8550;52.596;13.320;2023-07-31T21:57:09;19.00;99.90
16867;DHT22;8550;52.596;13.320;2023-07-31T22:02:11;18.90;99.90
16867;DHT22;8550;52.596;13.320;2023-07-31T22:07:13;19.00;99.90
16867;DHT22;8550;52.596;13.320;2023-07-31T22:12:16;19.00;99.90
16867;DHT22;8550;52.596;13.320;2023-07-31T22:17:18;18.90;99.90
16867;DHT22;8550;52.596;13.320;2023-07-31T22:22:20;19.00;99.90
16867;DHT22;8550;52.596;13.320;2023-07-31T22:27:23;19.00;99.90
16867;DHT22;8550;52.596;13.320;2023-07-31T22:32:25;19.00;99.90
16867;DHT22;8550;52.596;13.320;2023-07-31T22:37:27;19.00;99.90
16867;DHT22;8550;52.596;13.320;2023-07-31T22:42:30;19.00;99.90
16867;DHT22;8550;52.596;13.320;2023-07-31T22:47:33;19.00;99.90
16867;DHT22;8550;52.596;13.320;2023-07-31T22:52:37;19.00;99.90
16867;DHT22;8550;52.596;13.320;2023-07-31T22:57:40;19.00;99.90
16867;DHT22;8550;52.596;13.320;2023-07-31T23:02:42;19.00;99.90
16867;DHT22;8550;52.596;13.320;2023-07-31T23:07:45;19.10;99.90
16867;DHT22;8550;52.596;13.320;2023-07-31T23:12:48;19.10;99.90
16867;DHT22;8550;52.596;13.320;2023-07-31T23:17:50;19.10;99.90
16867;DHT22;8550;52.596;13.320;2023-07-31T23:22:51;19.10;99.90
16867;DHT22;8550;52.596;13.320;2023-07-31T23:27:55;19.10;99.90
16867;DHT22;8550;52.596;13.320;2023-07-31T23:32:56;19.00;99.90
16867;DHT22;8550;52.596;13.320;2023-07-31T23:37:58;19.00;99.90
16867;DHT22;8550;52.596;13.320;2023-07-31T23:43:01;18.90;99.90
16867;DHT22;8550;52.596;13.320;2023-07-31T23:48:04;18.80;99.90
16867;DHT22;8550;52.596;13.320;2023-07-31T23:53:06;18.70;99.90
16867;DHT22;8550;52.596;13.320;2023-07-31T23:58:09;18.60;99.90
